createdAt,value
2019-01-23T00:02:58.011Z,63.47
2019-01-23T00:05:18.405Z,60.77
2019-01-23T00:08:01.502Z,69.73
2019-01-23T00:10:40.601Z,67.33
2019-01-23T00:13:17.261Z,70.00
2019-01-23T00:16:07.371Z,73.07
2019-01-23T00:18:34.777Z,68.90
2019-01-23T00:21:33.761Z,69.60
2019-01-23T00:26:22.421Z,67.20
2019-01-23T00:29:03.596Z,76.13
2019-01-23T00:32:08.355Z,63.87
2019-01-23T00:38:02.800Z,67.60
2019-01-23T00:40:42.770Z,64.40
2019-01-23T00:43:26.973Z,61.83
2019-01-23T00:46:00.546Z,68.33
2019-01-23T00:51:28.758Z,65.90
2019-01-23T00:54:09.583Z,67.80
2019-01-23T00:58:06.939Z,72.00
2019-01-23T01:00:07.412Z,65.00
2019-01-23T01:02:54.320Z,69.47
2019-01-23T01:05:58.837Z,67.83
2019-01-23T01:08:40.541Z,70.40
2019-01-23T01:11:30.663Z,69.70
2019-01-23T01:14:39.038Z,72.20
2019-01-23T01:21:30.402Z,70.30
2019-01-23T01:24:18.806Z,70.47
2019-01-23T01:27:30.662Z,68.23
2019-01-23T01:30:02.919Z,77.07
2019-01-23T01:32:21.907Z,72.17
2019-01-23T01:34:51.156Z,76.17
2019-01-23T01:39:56.949Z,71.07
2019-01-23T01:43:05.906Z,64.13
2019-01-23T01:45:42.443Z,68.50
2019-01-23T01:51:11.089Z,76.77
2019-01-23T01:53:22.753Z,69.83
2019-01-23T01:56:19.764Z,73.40
2019-01-23T01:58:34.893Z,71.30
2019-01-23T02:01:17.266Z,80.60
2019-01-23T02:03:35.113Z,79.10
2019-01-23T02:06:05.051Z,74.10
2019-01-23T02:08:59.284Z,83.77
2019-01-23T02:11:23.307Z,72.60
2019-01-23T02:13:46.370Z,68.40
2019-01-23T02:17:09.442Z,72.00
2019-01-23T02:19:54.769Z,74.67
2019-01-23T02:44:34.131Z,64.23
2019-01-23T02:47:25.764Z,66.10
2019-01-23T02:49:57.610Z,68.77
2019-01-23T02:54:49.584Z,67.73
2019-01-23T03:06:13.937Z,71.87
2019-01-23T03:12:29.691Z,75.80
2019-01-23T03:18:42.867Z,69.90
2019-01-23T03:21:19.157Z,65.53
2019-01-23T03:23:37.991Z,63.67
2019-01-23T03:26:02.916Z,78.80
2019-01-23T03:28:50.541Z,70.57
2019-01-23T03:31:41.279Z,77.10
2019-01-23T03:33:57.686Z,71.70
2019-01-23T03:37:07.346Z,62.40
2019-01-23T03:39:25.319Z,77.10
2019-01-23T03:42:31.329Z,70.07
2019-01-23T03:48:50.060Z,77.00
2019-01-23T04:04:34.960Z,71.00
2019-01-23T04:13:17.345Z,74.43
2019-01-23T04:19:24.915Z,69.03
2019-01-23T04:21:59.962Z,70.90
2019-01-23T04:24:41.837Z,74.87
2019-01-23T04:27:33.780Z,68.80
2019-01-23T04:36:14.582Z,73.83
2019-01-23T04:39:07.442Z,69.70
2019-01-23T04:41:59.530Z,74.47
2019-01-23T04:44:43.762Z,66.03
2019-01-23T05:37:54.926Z,61.90
2019-01-23T05:40:22.466Z,64.93
2019-01-23T05:42:43.693Z,69.07
2019-01-23T05:51:32.101Z,69.80
2019-01-23T05:54:05.925Z,79.50
2019-01-23T05:57:17.281Z,69.83
2019-01-23T05:59:38.918Z,77.17
2019-01-23T06:02:35.204Z,70.90
2019-01-23T06:08:07.857Z,72.50
2019-01-23T06:10:41.389Z,70.90
2019-01-23T06:15:28.560Z,67.43
2019-01-23T06:17:32.602Z,65.27
2019-01-23T06:19:38.551Z,63.00
2019-01-23T06:21:44.164Z,66.37
2019-01-23T06:23:48.355Z,67.77
2019-01-23T06:26:29.068Z,73.37
2019-01-23T06:28:40.455Z,70.60
2019-01-23T06:31:00.540Z,64.20
2019-01-23T06:33:22.219Z,63.33
2019-01-23T06:35:26.328Z,62.07
2019-01-23T06:37:59.647Z,61.70
2019-01-23T06:40:10.881Z,67.20
2019-01-23T06:42:42.915Z,63.00
2019-01-23T06:45:02.342Z,59.87
2019-01-23T06:47:23.827Z,63.97
2019-01-23T06:52:35.404Z,63.00
2019-01-23T06:54:34.557Z,68.03
2019-01-23T06:57:02.676Z,68.07
2019-01-23T06:59:23.032Z,67.40
2019-01-23T07:05:23.336Z,69.83
2019-01-23T07:11:50.685Z,65.47
2019-01-23T07:15:00.789Z,70.03
2019-01-23T07:20:19.610Z,64.47
2019-01-23T07:23:21.455Z,63.87
2019-01-23T07:26:37.901Z,65.97
2019-01-23T07:32:41.463Z,67.37
2019-01-23T07:38:04.150Z,62.43
2019-01-23T07:40:23.821Z,70.77
2019-01-23T08:40:30.707Z,67.57
2019-01-23T08:46:23.008Z,63.47
2019-01-23T09:34:34.718Z,69.80
2019-01-23T09:37:22.816Z,74.80
2019-01-23T09:54:00.095Z,73.23
2019-01-23T10:15:11.449Z,58.50
2019-01-23T11:35:19.786Z,56.90
2019-01-23T11:37:23.707Z,64.30
2019-01-23T11:39:27.798Z,63.80
2019-01-23T11:41:31.665Z,67.90
2019-01-23T11:56:43.174Z,68.80
2019-01-23T12:23:50.984Z,62.17
2019-01-23T12:33:43.993Z,63.73
2019-01-23T12:42:27.154Z,68.67
2019-01-23T12:44:34.905Z,56.43
2019-01-23T12:55:03.277Z,56.73
2019-01-23T12:56:39.148Z,61.83
2019-01-23T13:08:16.247Z,66.57
2019-01-23T13:17:51.432Z,66.43
2019-01-23T13:24:06.117Z,63.20
2019-01-23T13:31:57.514Z,86.70
2019-01-23T13:34:20.326Z,53.50
2019-01-23T13:38:57.900Z,66.60
2019-01-23T13:41:11.295Z,71.67
2019-01-23T13:43:27.079Z,72.20
2019-01-23T13:45:44.315Z,63.70
2019-01-23T13:47:53.546Z,61.87
2019-01-23T13:50:47.956Z,64.03
2019-01-23T13:53:13.829Z,63.53
2019-01-23T13:55:39.502Z,72.70
2019-01-23T13:58:41.569Z,72.03
2019-01-23T14:01:45.137Z,66.77
2019-01-23T14:04:24.146Z,67.83
2019-01-23T14:06:32.510Z,68.10
2019-01-23T14:09:02.242Z,68.23
2019-01-23T14:11:25.290Z,74.17
2019-01-23T14:16:38.717Z,64.40
2019-01-23T14:19:03.546Z,74.97
2019-01-23T14:28:40.710Z,68.53
2019-01-23T15:09:04.993Z,80.60
2019-01-23T15:11:51.680Z,81.57
2019-01-23T15:19:11.116Z,78.47
2019-01-23T15:24:33.766Z,76.13
2019-01-23T15:29:11.154Z,72.83
2019-01-23T15:31:48.027Z,79.30
2019-01-23T15:40:06.930Z,71.67
2019-01-23T15:46:12.212Z,81.30
2019-01-23T15:51:36.025Z,69.57
2019-01-23T15:54:37.595Z,74.00
2019-01-23T15:58:14.145Z,78.90
2019-01-23T16:00:43.861Z,67.30
2019-01-23T16:03:02.513Z,75.93
2019-01-23T16:05:34.905Z,68.30
2019-01-23T16:22:19.771Z,74.73
2019-01-23T16:24:39.099Z,77.37
2019-01-23T16:26:40.320Z,80.43
2019-01-23T16:28:44.329Z,65.50
2019-01-23T16:30:48.439Z,71.87
2019-01-23T16:33:17.309Z,77.80
2019-01-23T16:35:39.721Z,73.00
2019-01-23T16:37:58.697Z,76.03
2019-01-23T16:40:02.591Z,68.73
2019-01-23T16:42:09.543Z,86.43
2019-01-23T16:44:31.687Z,70.03
2019-01-23T16:46:46.136Z,76.10
2019-01-23T16:49:05.927Z,75.27
2019-01-23T16:51:20.933Z,74.97
2019-01-23T16:53:59.105Z,71.30
2019-01-23T16:56:13.047Z,72.53
2019-01-23T16:58:49.887Z,73.63
2019-01-23T17:01:06.466Z,65.07
2019-01-23T17:03:10.601Z,72.20
2019-01-23T17:05:17.843Z,73.97
2019-01-23T17:07:22.001Z,71.07
2019-01-23T17:10:17.198Z,72.53
2019-01-23T17:12:12.602Z,65.23
2019-01-23T17:26:57.253Z,71.40
2019-01-23T17:29:07.401Z,82.23
2019-01-23T17:31:16.599Z,72.87
2019-01-23T17:34:20.873Z,85.83
2019-01-23T17:39:47.069Z,73.53
2019-01-23T17:41:59.120Z,70.60
2019-01-23T17:44:19.231Z,80.07
2019-01-23T17:48:52.305Z,93.30
2019-01-23T17:51:26.510Z,73.13
2019-01-23T17:53:55.370Z,78.63
2019-01-23T17:55:59.162Z,75.87
2019-01-23T17:58:08.204Z,62.77
2019-01-23T18:00:16.615Z,77.50
2019-01-23T18:05:51.248Z,80.83
2019-01-23T18:08:41.742Z,76.80
2019-01-23T18:10:47.540Z,72.37
2019-01-23T18:13:02.310Z,78.17
2019-01-23T18:15:26.517Z,70.23
2019-01-23T18:17:37.739Z,73.67
2019-01-23T18:19:58.812Z,77.73
2019-01-23T18:22:02.691Z,69.30
2019-01-23T18:24:27.513Z,82.00
2019-01-23T18:26:45.572Z,90.50
2019-01-23T18:29:06.732Z,85.37
2019-01-23T18:31:19.283Z,71.70
2019-01-23T18:33:56.221Z,78.50
2019-01-23T18:36:35.171Z,77.47
2019-01-23T18:39:46.841Z,69.10
2019-01-23T18:43:12.914Z,74.63
2019-01-23T18:49:57.146Z,105.97
2019-01-23T18:55:28.608Z,79.70
2019-01-23T18:57:48.793Z,95.40
2019-01-23T19:00:08.636Z,81.13
2019-01-23T19:02:40.053Z,89.73
2019-01-23T19:04:55.647Z,102.97
2019-01-23T19:07:19.810Z,93.40
2019-01-23T19:09:23.669Z,92.37
2019-01-23T19:11:30.449Z,100.33
2019-01-23T19:13:45.792Z,94.87
2019-01-23T19:15:57.483Z,84.30
2019-01-23T19:18:28.062Z,91.13
2019-01-23T19:21:33.254Z,91.43
2019-01-23T19:24:11.853Z,88.40
2019-01-23T19:28:17.844Z,84.60
2019-01-23T19:41:38.522Z,80.10
2019-01-23T19:44:08.621Z,73.13
2019-01-23T19:46:31.668Z,94.13
2019-01-23T19:49:13.325Z,85.37
2019-01-23T19:51:25.665Z,89.40
2019-01-23T19:53:55.477Z,93.60
2019-01-23T20:04:35.330Z,89.80
2019-01-23T20:06:52.691Z,89.67
2019-01-23T20:09:45.836Z,87.17
2019-01-23T20:12:19.422Z,81.87
2019-01-23T20:14:57.441Z,84.13
2019-01-23T20:17:19.591Z,84.30
2019-01-23T20:19:23.497Z,87.53
2019-01-23T20:21:54.982Z,83.33
2019-01-23T20:23:59.447Z,83.30
2019-01-23T20:26:03.471Z,97.07
2019-01-23T20:28:13.335Z,83.63
2019-01-23T20:30:53.380Z,87.23
2019-01-23T20:32:58.794Z,83.30
2019-01-23T20:35:24.204Z,88.53
2019-01-23T20:37:28.157Z,83.33
2019-01-23T20:39:33.123Z,89.27
2019-01-23T20:41:37.411Z,83.97
2019-01-23T20:43:48.296Z,91.47
2019-01-23T20:46:04.843Z,105.10
2019-01-23T20:48:14.155Z,84.27
2019-01-23T20:50:23.150Z,83.23
2019-01-23T20:52:26.892Z,97.97
2019-01-23T20:54:31.078Z,86.90
2019-01-23T20:56:41.124Z,84.33
2019-01-23T20:58:48.258Z,88.00
2019-01-23T21:01:01.691Z,94.50
2019-01-23T21:03:59.180Z,89.00
2019-01-23T21:06:03.162Z,94.50
2019-01-23T21:08:10.481Z,90.83
2019-01-23T21:10:15.391Z,94.57
2019-01-23T21:12:23.612Z,94.90
2019-01-23T21:14:33.412Z,96.50
2019-01-23T21:16:43.096Z,87.80
2019-01-23T21:18:48.148Z,92.57
2019-01-23T21:20:52.398Z,95.17
2019-01-23T21:22:56.476Z,105.70
2019-01-23T21:25:05.725Z,94.90
2019-01-23T21:30:25.255Z,105.83
2019-01-23T21:32:47.934Z,95.63
2019-01-23T21:35:01.594Z,102.10
2019-01-23T21:37:35.474Z,83.13
2019-01-23T21:40:13.114Z,95.30
2019-01-23T21:42:24.301Z,100.83
2019-01-23T21:44:29.967Z,91.07
2019-01-23T21:46:41.402Z,93.83
2019-01-23T21:48:54.772Z,102.03
2019-01-23T21:51:01.741Z,97.90
2019-01-23T21:53:17.361Z,94.40
2019-01-23T21:55:27.901Z,93.07
2019-01-23T21:57:37.696Z,92.47
2019-01-23T21:59:50.692Z,95.00
2019-01-23T22:02:03.308Z,86.90
2019-01-23T22:04:15.245Z,97.27
2019-01-23T22:06:32.773Z,90.70
2019-01-23T22:09:01.735Z,86.60
2019-01-23T22:11:11.761Z,99.47
2019-01-23T22:13:31.651Z,108.07
2019-01-23T22:15:39.116Z,105.70
2019-01-23T22:17:46.211Z,94.57
2019-01-23T22:19:53.908Z,112.27
2019-01-23T22:22:07.145Z,100.63
2019-01-23T22:24:16.732Z,104.93
2019-01-23T22:26:33.321Z,89.27
2019-01-23T22:28:41.888Z,99.37
2019-01-23T22:30:54.268Z,112.33
2019-01-23T22:33:06.072Z,106.87
2019-01-23T22:35:39.714Z,107.13
2019-01-23T22:37:51.627Z,114.40
2019-01-23T22:40:34.738Z,101.70
2019-01-23T22:42:37.638Z,104.70
2019-01-23T22:44:44.432Z,113.43
2019-01-23T22:46:51.726Z,102.90
2019-01-23T22:49:02.197Z,113.87
2019-01-23T22:51:06.272Z,118.37
2019-01-23T22:53:10.399Z,115.40
2019-01-23T22:55:14.567Z,112.83
2019-01-23T22:57:18.513Z,124.97
2019-01-23T22:59:22.504Z,113.07
2019-01-23T23:01:30.943Z,112.37
2019-01-23T23:03:35.016Z,122.63
2019-01-23T23:05:39.416Z,115.73
2019-01-23T23:07:43.378Z,122.27
2019-01-23T23:09:47.589Z,113.90
2019-01-23T23:11:51.525Z,115.93
2019-01-23T23:13:55.777Z,123.67
2019-01-23T23:15:59.815Z,123.93
2019-01-23T23:18:03.835Z,125.57
2019-01-23T23:20:08.445Z,119.03
2019-01-23T23:22:12.388Z,122.30
2019-01-23T23:24:16.518Z,120.67
2019-01-23T23:26:20.620Z,127.30
2019-01-23T23:28:26.007Z,127.90
2019-01-23T23:30:30.627Z,135.17
2019-01-23T23:32:36.133Z,126.23
2019-01-23T23:34:40.091Z,159.90
2019-01-23T23:36:44.072Z,133.23
2019-01-23T23:38:48.054Z,131.97
2019-01-23T23:40:51.949Z,128.03
2019-01-23T23:42:56.137Z,127.50
2019-01-23T23:47:05.359Z,137.63
2019-01-23T23:49:09.354Z,142.60
2019-01-23T23:51:13.316Z,141.23
2019-01-23T23:53:17.361Z,135.07
2019-01-23T23:55:21.413Z,135.90
2019-01-23T23:57:25.309Z,158.50
2019-01-23T23:59:29.221Z,150.80
